Terminal Aerodrome Forecast
Issued by NWS

Home | Current Version | Previous Version | Text Only | Print | Product List | Glossary On
Versions: 1 2 3 4 5 6 7 8 9 10 11 12 13 14
000
FTUS43 KABR 052320
TAFPIR
TAF
KPIR 052320Z 0600/0624 16011KT P6SM FEW200
     FM060500 14009KT P6SM SCT200 WS020/20040KT
     FM061200 17005KT P6SM SCT120
     FM061600 23005KT P6SM SCT250
     FM062000 35009KT P6SM SCT250=

USA.gov is the U.S. government's official web portal to all federal, state and local government web resources and services.